CDT,Max TemperatureF,Mean TemperatureF,Min TemperatureF,Max Dew PointF,MeanDew PointF,Min DewpointF,Max Humidity, Mean Humidity, Min Humidity, Max Sea Level PressureIn, Mean Sea Level PressureIn, Min Sea Level PressureIn, Max VisibilityMiles, Mean VisibilityMiles, Min VisibilityMiles, Max Wind SpeedMPH, Mean Wind SpeedMPH, Max Gust SpeedMPH,PrecipitationIn, CloudCover, Events, WindDirDegrees
2013-8-1,99,88,76,73,68,62,79,55,31,30.01,29.95,29.88,10,10,10,13,4,24,0.00,1,,97
2013-8-2,100,89,77,67,61,58,62,45,28,29.91,29.86,29.81,10,10,10,20,11,24,0.00,0,,168
2013-8-3,99,88,77,63,60,58,58,43,27,29.95,29.90,29.86,10,10,10,18,12,23,0.00,0,,164
2013-8-4,97,87,77,68,63,58,67,47,27,30.01,29.94,29.88,10,10,10,17,10,23,0.00,0,,159
2013-8-5,99,89,79,67,61,57,67,47,27,29.96,29.89,29.80,10,10,10,20,12,24,0.00,0,,174
2013-8-6,102,90,77,67,62,58,67,46,24,29.86,29.80,29.72,10,10,10,22,12,29,0.00,0,,170
2013-8-7,104,90,75,71,62,58,67,45,22,29.90,29.79,29.69,10,10,6,25,11,35,0.12,1,Rain-Thunderstorm,195
2013-8-8,101,88,74,70,66,60,74,52,30,29.89,29.80,29.73,10,10,4,30,11,37,0.10,2,Rain-Thunderstorm,181
2013-8-9,97,84,70,71,68,65,84,62,39,29.98,29.88,29.81,10,10,10,14,7,17,0.00,1,,347
2013-8-10,94,84,73,70,67,64,84,63,41,30.18,30.04,29.97,10,10,10,15,7,18,0.00,3,,23
2013-8-11,98,85,71,66,63,59,73,51,29,30.05,29.99,29.92,10,10,10,15,4,22,0.00,1,,116
2013-8-12,97,86,74,67,63,60,74,53,31,30.02,29.96,29.89,10,10,10,14,7,18,0.00,0,,179
2013-8-13,99,88,77,66,62,56,60,43,25,30.01,29.93,29.87,10,10,10,20,8,29,0.00,1,,189
2013-8-14,87,81,74,67,65,63,79,63,46,30.07,29.98,29.92,10,10,10,23,8,26,0.00,3,,34
2013-8-15,91,81,71,70,66,61,87,63,38,30.01,29.97,29.91,10,10,10,20,7,24,T,1,,136
2013-8-16,91,78,64,66,62,54,93,61,29,30.16,30.02,29.93,10,9,2,28,9,37,0.23,2,Rain-Thunderstorm,95
2013-8-17,91,78,65,65,61,58,81,58,34,30.06,30.01,29.94,10,10,9,16,7,20,0.00,0,,125
2013-8-18,93,81,68,58,57,55,68,49,30,30.04,29.99,29.94,10,10,10,18,10,24,0.00,0,,142
2013-8-19,95,83,71,59,57,56,61,47,32,30.02,29.95,29.89,10,10,10,21,11,28,0.00,0,,145
2013-8-20,95,84,72,61,58,53,66,47,28,29.99,29.94,29.91,10,10,10,18,10,24,0.00,1,,150
2013-8-21,93,81,69,64,59,53,78,55,32,30.04,29.99,29.94,10,10,10,18,8,28,0.00,1,,150
2013-8-22,96,85,73,65,62,57,73,52,30,30.05,29.98,29.90,10,10,10,15,8,24,0.00,1,,170
2013-8-23,97,85,72,64,62,59,68,50,31,30.00,29.95,29.87,10,10,10,24,7,30,0.00,1,,150
2013-8-24,99,85,71,65,61,57,73,50,26,30.04,29.98,29.92,10,10,10,22,7,26,0.00,1,,132
2013-8-25,97,86,74,65,62,58,68,48,27,30.09,30.04,30.00,10,10,10,21,9,25,0.00,1,,129
2013-8-26,93,82,71,66,62,59,73,53,32,30.13,30.06,30.01,10,10,10,21,10,25,0.00,1,,124
2013-8-27,85,78,71,73,68,61,87,71,54,30.14,30.05,29.98,10,9,2,22,10,28,0.09,4,Rain,147
2013-8-28,94,83,72,69,64,58,90,61,32,30.08,30.02,29.96,10,10,10,17,10,26,0.00,0,,172
2013-8-29,97,84,70,64,60,58,73,51,29,30.07,30.01,29.95,10,10,10,15,7,20,0.00,0,,177
2013-8-30,100,85,70,60,56,53,61,42,22,30.01,29.93,29.86,10,10,10,14,6,18,0.00,0,,172
2013-8-31,101,87,72,60,57,53,61,41,21,29.91,29.84,29.78,10,10,10,13,7,18,0.00,0,,171